createdAt,value
2023-05-20T00:00:40.580Z,19.93
2023-05-20T00:03:07.613Z,17.10
2023-05-20T00:05:34.923Z,21.37
2023-05-20T00:08:04.738Z,20.37
2023-05-20T00:10:31.701Z,18.37
2023-05-20T00:12:58.803Z,16.87
2023-05-20T00:15:25.712Z,17.80
2023-05-20T00:17:53.089Z,18.93
2023-05-20T00:20:20.317Z,16.80
2023-05-20T00:22:47.199Z,17.87
2023-05-20T00:25:14.918Z,16.50
2023-05-20T00:27:42.465Z,16.80
2023-05-20T00:30:09.979Z,16.15
2023-05-20T00:32:36.948Z,18.90
2023-05-20T00:35:04.649Z,14.70
2023-05-20T00:37:31.624Z,18.77
2023-05-20T00:39:58.701Z,18.03
2023-05-20T00:42:27.971Z,23.03
2023-05-20T00:44:55.999Z,20.20
2023-05-20T00:47:28.463Z,23.83
2023-05-20T00:49:56.472Z,17.90
2023-05-20T00:52:24.119Z,19.83
2023-05-20T00:54:52.161Z,19.13
2023-05-20T00:57:20.207Z,18.37
2023-05-20T00:59:47.542Z,16.67
2023-05-20T01:02:14.746Z,22.90
2023-05-20T01:04:46.725Z,16.47
2023-05-20T01:07:17.907Z,17.73
2023-05-20T01:09:45.610Z,17.13
2023-05-20T01:12:17.741Z,19.47
2023-05-20T01:14:50.116Z,18.17
2023-05-20T01:17:21.173Z,19.90
2023-05-20T01:19:49.162Z,19.97
2023-05-20T01:22:16.331Z,18.07
2023-05-20T01:24:44.699Z,21.13
2023-05-20T01:27:13.641Z,15.43
2023-05-20T01:29:42.179Z,19.10
2023-05-20T01:32:19.231Z,18.27
2023-05-20T01:34:52.178Z,17.30
2023-05-20T01:37:20.104Z,17.57
2023-05-20T01:39:48.549Z,14.03
2023-05-20T01:42:16.168Z,16.50
2023-05-20T01:44:43.725Z,17.77
2023-05-20T01:47:10.798Z,17.30
2023-05-20T01:49:37.898Z,16.77
2023-05-20T01:52:05.577Z,17.02
2023-05-20T01:54:32.785Z,13.70
2023-05-20T01:56:59.906Z,16.10
2023-05-20T01:59:27.026Z,14.95
2023-05-20T02:01:54.376Z,13.27
2023-05-20T02:04:22.725Z,12.57
2023-05-20T02:06:49.864Z,13.67
2023-05-20T02:09:18.800Z,12.63
2023-05-20T02:11:45.894Z,14.10
2023-05-20T02:14:13.935Z,15.70
2023-05-20T02:16:41.338Z,13.87
2023-05-20T02:19:13.187Z,15.50
2023-05-20T02:21:41.886Z,12.07
2023-05-20T02:24:08.928Z,11.97
2023-05-20T02:26:36.354Z,12.77
2023-05-20T02:29:03.801Z,13.07
2023-05-20T02:31:31.043Z,12.47
2023-05-20T02:33:58.221Z,13.57
2023-05-20T02:36:25.856Z,16.63
2023-05-20T02:38:54.759Z,11.83
2023-05-20T02:41:21.775Z,11.23
2023-05-20T02:43:48.882Z,12.23
2023-05-20T02:46:18.659Z,10.88
2023-05-20T02:48:45.931Z,11.33
2023-05-20T02:51:12.770Z,14.30
2023-05-20T02:53:39.692Z,13.73
2023-05-20T02:56:08.722Z,10.80
2023-05-20T02:58:35.900Z,11.27
2023-05-20T03:01:03.576Z,13.50
2023-05-20T03:03:30.947Z,10.53
2023-05-20T03:05:57.882Z,13.30
2023-05-20T03:08:25.296Z,11.03
2023-05-20T03:10:52.463Z,12.37
2023-05-20T03:13:19.588Z,12.60
2023-05-20T03:15:46.579Z,13.13
2023-05-20T03:18:16.519Z,10.73
2023-05-20T03:20:43.721Z,12.70
2023-05-20T03:23:11.234Z,13.67
2023-05-20T03:25:39.391Z,12.00
2023-05-20T03:28:06.979Z,9.80
2023-05-20T03:30:34.024Z,10.57
2023-05-20T03:35:30.090Z,8.30
2023-05-20T03:37:56.936Z,8.45
2023-05-20T03:40:25.088Z,11.37
2023-05-20T03:42:53.095Z,12.07
2023-05-20T03:45:21.037Z,10.50
2023-05-20T03:47:49.035Z,8.63
2023-05-20T03:50:16.268Z,10.40
2023-05-20T03:52:43.237Z,14.63
2023-05-20T03:55:10.556Z,10.50
2023-05-20T03:57:38.503Z,8.43
2023-05-20T04:00:11.363Z,8.77
2023-05-20T04:02:38.771Z,10.67
2023-05-20T04:05:08.777Z,9.23
2023-05-20T04:07:36.378Z,10.53
2023-05-20T04:10:04.443Z,9.30
2023-05-20T04:12:32.530Z,11.73
2023-05-20T04:15:02.954Z,10.90
2023-05-20T04:17:30.915Z,7.00
2023-05-20T04:20:00.141Z,9.47
2023-05-20T04:22:27.556Z,11.47
2023-05-20T04:24:54.775Z,7.45
2023-05-20T04:27:21.785Z,11.52
2023-05-20T04:29:48.942Z,8.27
2023-05-20T04:32:19.160Z,8.32
2023-05-20T04:34:49.229Z,9.82
2023-05-20T04:37:16.613Z,7.47
2023-05-20T04:39:44.172Z,8.40
2023-05-20T04:42:11.076Z,7.90
2023-05-20T04:44:38.094Z,8.18
2023-05-20T04:47:07.969Z,8.23
2023-05-20T04:49:35.500Z,6.85
2023-05-20T04:52:02.762Z,10.63
2023-05-20T04:54:30.033Z,8.88
2023-05-20T04:56:57.126Z,9.32
2023-05-20T04:59:24.580Z,9.20
2023-05-20T05:01:51.749Z,10.52
2023-05-20T05:04:18.793Z,8.88
2023-05-20T05:06:48.746Z,8.05
2023-05-20T05:09:15.899Z,6.78
2023-05-20T05:11:43.050Z,8.18
2023-05-20T05:14:10.144Z,7.45
2023-05-20T05:16:37.008Z,6.82
2023-05-20T05:19:03.990Z,8.88
2023-05-20T05:21:31.589Z,6.70
2023-05-20T05:23:58.720Z,8.32
2023-05-20T05:26:26.700Z,8.38
2023-05-20T05:28:55.745Z,9.43
2023-05-20T05:31:23.741Z,7.72
2023-05-20T05:33:50.642Z,7.15
2023-05-20T05:36:17.531Z,7.55
2023-05-20T05:38:44.713Z,11.55
2023-05-20T05:41:11.666Z,9.25
2023-05-20T05:43:38.576Z,8.75
2023-05-20T05:46:06.058Z,6.95
2023-05-20T05:48:33.405Z,7.05
2023-05-20T05:51:00.305Z,6.22
2023-05-20T05:53:27.567Z,10.05
2023-05-20T05:55:54.706Z,6.53
2023-05-20T05:58:21.749Z,9.05
2023-05-20T06:00:52.917Z,6.85
2023-05-20T06:03:20.225Z,6.85
2023-05-20T06:05:50.206Z,7.80
2023-05-20T06:08:17.088Z,10.00
2023-05-20T06:10:51.018Z,7.20
2023-05-20T06:13:18.311Z,6.97
2023-05-20T06:15:46.304Z,9.73
2023-05-20T06:18:13.421Z,6.38
2023-05-20T06:20:40.323Z,7.07
2023-05-20T06:23:07.226Z,7.15
2023-05-20T06:25:34.538Z,6.70
2023-05-20T06:28:01.581Z,6.35
2023-05-20T06:30:28.517Z,10.07
2023-05-20T06:32:55.466Z,7.18
2023-05-20T06:35:22.531Z,7.00
2023-05-20T06:37:49.753Z,7.45
2023-05-20T06:40:16.931Z,10.27
2023-05-20T06:42:44.325Z,6.20
2023-05-20T06:45:11.772Z,7.95
2023-05-20T06:47:39.023Z,16.77
2023-05-20T06:50:06.361Z,7.78
2023-05-20T06:52:33.232Z,7.63
2023-05-20T06:55:00.744Z,6.32
2023-05-20T06:57:27.653Z,10.85
2023-05-20T06:59:54.501Z,9.73
2023-05-20T07:02:22.225Z,7.95
2023-05-20T07:04:49.557Z,8.25
2023-05-20T07:07:17.427Z,10.48
2023-05-20T07:09:45.891Z,5.72
2023-05-20T07:12:12.739Z,7.22
2023-05-20T07:14:39.606Z,7.35
2023-05-20T07:17:06.581Z,8.18
2023-05-20T07:19:33.959Z,10.48
2023-05-20T07:22:01.044Z,6.80
2023-05-20T07:24:28.097Z,9.02
2023-05-20T07:26:55.331Z,6.00
2023-05-20T07:29:22.355Z,7.75
2023-05-20T07:31:49.579Z,7.35
2023-05-20T07:34:16.644Z,6.97
2023-05-20T07:36:44.844Z,8.40
2023-05-20T07:39:14.917Z,10.00
2023-05-20T07:41:42.578Z,10.32
2023-05-20T07:44:11.360Z,6.15
2023-05-20T07:46:39.082Z,7.72
2023-05-20T07:49:06.350Z,7.95
2023-05-20T07:51:33.686Z,6.30
2023-05-20T07:54:01.029Z,9.93
2023-05-20T07:56:28.680Z,9.25
2023-05-20T07:59:00.754Z,5.55
2023-05-20T08:01:27.959Z,8.52
2023-05-20T08:03:55.577Z,6.88
2023-05-20T08:06:24.419Z,6.15
2023-05-20T08:08:54.070Z,9.52
2023-05-20T08:11:22.372Z,7.25
2023-05-20T08:13:50.017Z,6.60
2023-05-20T08:16:17.048Z,5.47
2023-05-20T08:18:44.467Z,8.35
2023-05-20T08:21:12.225Z,9.05
2023-05-20T08:23:40.516Z,9.00
2023-05-20T08:26:07.800Z,8.38
2023-05-20T08:28:34.951Z,9.07
2023-05-20T08:31:02.473Z,7.10
2023-05-20T08:33:30.561Z,10.73
2023-05-20T08:35:58.706Z,7.55
2023-05-20T08:38:25.837Z,7.90
2023-05-20T08:40:55.376Z,8.30
2023-05-20T08:43:23.533Z,8.13
2023-05-20T08:45:52.772Z,9.82
2023-05-20T08:48:22.719Z,9.55
2023-05-20T08:50:53.140Z,9.23
2023-05-20T08:53:22.718Z,6.40
2023-05-20T08:56:03.195Z,7.78
2023-05-20T08:58:31.601Z,9.52
2023-05-20T09:01:02.232Z,10.77
2023-05-20T09:03:29.633Z,9.48
2023-05-20T09:06:08.162Z,6.57
2023-05-20T09:08:35.513Z,9.70
2023-05-20T09:11:03.084Z,7.15
2023-05-20T09:13:33.287Z,10.98
2023-05-20T09:16:02.193Z,9.77
2023-05-20T09:18:30.291Z,8.98
2023-05-20T09:20:58.170Z,7.45
2023-05-20T09:23:26.092Z,12.93
2023-05-20T09:25:53.120Z,8.38
2023-05-20T09:28:24.201Z,7.32
2023-05-20T09:30:51.896Z,7.38
2023-05-20T09:33:19.177Z,10.25
2023-05-20T09:35:47.121Z,10.77
2023-05-20T09:38:15.648Z,8.38
2023-05-20T09:40:45.279Z,8.10
2023-05-20T09:43:12.538Z,6.65
2023-05-20T09:45:39.742Z,18.20
2023-05-20T09:48:09.124Z,11.15
2023-05-20T09:50:36.819Z,14.10
2023-05-20T09:53:05.163Z,10.63
2023-05-20T09:55:33.377Z,11.77
2023-05-20T09:58:03.887Z,14.18
2023-05-20T10:00:31.726Z,6.80
2023-05-20T10:03:00.078Z,9.60
2023-05-20T10:05:32.188Z,12.65
2023-05-20T10:08:11.888Z,7.90
2023-05-20T10:11:20.072Z,7.53
2023-05-20T10:13:59.226Z,5.28
2023-05-20T10:16:34.522Z,8.57
2023-05-20T10:19:20.047Z,8.43
2023-05-20T10:21:58.112Z,7.95
2023-05-20T10:24:58.028Z,6.03
2023-05-20T10:27:25.256Z,5.03
2023-05-20T10:29:54.096Z,8.27
2023-05-20T10:32:32.402Z,7.07
2023-05-20T10:35:06.008Z,6.88
2023-05-20T10:37:42.461Z,9.02
2023-05-20T10:40:12.307Z,9.93
2023-05-20T10:42:40.231Z,7.72
2023-05-20T10:45:08.517Z,9.88
2023-05-20T10:47:36.592Z,9.27
2023-05-20T10:50:06.085Z,6.95
2023-05-20T10:52:39.365Z,10.52
2023-05-20T10:55:07.665Z,7.28
2023-05-20T10:57:34.784Z,7.85
2023-05-20T11:00:02.129Z,5.43
2023-05-20T11:02:29.616Z,7.20
2023-05-20T11:05:00.944Z,8.93
2023-05-20T11:07:32.272Z,6.25
2023-05-20T11:09:59.836Z,7.97
2023-05-20T11:12:27.912Z,6.88
2023-05-20T11:14:55.403Z,6.40
2023-05-20T11:17:22.328Z,6.65
2023-05-20T11:19:49.530Z,7.43
2023-05-20T11:22:16.519Z,5.80
2023-05-20T11:24:43.490Z,5.70
2023-05-20T11:27:11.611Z,8.00
2023-05-20T11:29:40.641Z,6.85
2023-05-20T11:32:08.395Z,6.78
2023-05-20T11:34:37.736Z,8.23
2023-05-20T11:37:11.835Z,7.65
2023-05-20T11:39:39.362Z,8.50
2023-05-20T11:42:06.617Z,5.88
2023-05-20T11:44:33.909Z,6.45
2023-05-20T11:47:02.078Z,9.68
2023-05-20T11:49:31.076Z,12.77
2023-05-20T11:52:03.262Z,10.20
2023-05-20T11:54:36.574Z,5.90
2023-05-20T11:59:44.886Z,8.00
2023-05-20T12:02:13.635Z,5.35
2023-05-20T12:04:42.890Z,6.63
2023-05-20T12:07:10.504Z,7.18
2023-05-20T12:09:37.609Z,13.15
2023-05-20T12:12:04.708Z,11.40
2023-05-20T12:14:31.754Z,4.90
2023-05-20T12:16:59.910Z,14.82
2023-05-20T12:19:27.034Z,5.07
2023-05-20T12:21:54.006Z,9.80
2023-05-20T12:24:21.347Z,4.30
2023-05-20T12:26:48.425Z,8.35
2023-05-20T12:29:15.423Z,7.97
2023-05-20T12:31:42.546Z,5.78
2023-05-20T12:34:09.643Z,4.78
2023-05-20T12:36:37.784Z,7.90
2023-05-20T12:39:05.468Z,4.90
2023-05-20T12:41:32.410Z,6.80
2023-05-20T12:43:59.618Z,4.95
2023-05-20T12:46:27.230Z,6.07
2023-05-20T12:48:54.177Z,6.88
2023-05-20T12:51:21.561Z,6.95
2023-05-20T12:53:48.848Z,6.80
2023-05-20T12:56:16.422Z,5.07
2023-05-20T12:58:44.501Z,12.18
2023-05-20T13:01:11.631Z,5.70
2023-05-20T13:03:38.843Z,8.98
2023-05-20T13:06:06.025Z,8.38
2023-05-20T13:08:33.076Z,6.85
2023-05-20T13:11:00.179Z,9.57
2023-05-20T13:13:27.373Z,23.52
2023-05-20T13:15:54.829Z,6.35
2023-05-20T13:18:22.035Z,6.85
2023-05-20T13:20:49.823Z,6.60
2023-05-20T13:23:16.718Z,7.90
2023-05-20T13:25:44.367Z,7.75
2023-05-20T13:28:12.604Z,10.48
2023-05-20T13:30:39.863Z,8.73
2023-05-20T13:33:07.131Z,9.45
2023-05-20T13:35:34.314Z,9.20
2023-05-20T13:38:01.398Z,10.15
2023-05-20T13:40:29.578Z,8.30
2023-05-20T13:42:56.640Z,7.20
2023-05-20T13:45:23.842Z,8.55
2023-05-20T13:47:51.067Z,9.63
2023-05-20T13:50:18.320Z,7.03
2023-05-20T13:52:45.300Z,9.32
2023-05-20T13:55:12.410Z,7.57
2023-05-20T13:57:39.580Z,8.20
2023-05-20T14:00:07.260Z,6.78
2023-05-20T14:02:34.586Z,8.68
2023-05-20T14:05:02.676Z,11.20
2023-05-20T14:07:29.717Z,7.25
2023-05-20T14:09:57.019Z,7.28
2023-05-20T14:12:24.381Z,6.78
2023-05-20T14:14:51.393Z,8.30
2023-05-20T14:17:18.689Z,6.53
2023-05-20T14:19:45.952Z,7.95
2023-05-20T14:22:15.485Z,8.00
2023-05-20T14:24:42.666Z,9.30
2023-05-20T14:27:11.499Z,6.47
2023-05-20T14:29:38.444Z,5.85
2023-05-20T14:32:05.926Z,9.60
2023-05-20T14:34:33.039Z,7.05
2023-05-20T14:37:05.607Z,6.70
2023-05-20T14:39:32.558Z,8.23
2023-05-20T14:41:59.890Z,6.35
2023-05-20T14:44:26.890Z,9.02
2023-05-20T14:46:54.292Z,6.38
2023-05-20T14:49:21.688Z,9.20
2023-05-20T14:51:48.683Z,7.68
2023-05-20T14:54:16.483Z,7.15
2023-05-20T14:56:43.559Z,6.90
2023-05-20T14:59:10.496Z,7.97
2023-05-20T15:01:37.396Z,7.68
2023-05-20T15:04:04.434Z,8.73
2023-05-20T15:06:33.644Z,9.27
2023-05-20T15:09:00.716Z,7.07
2023-05-20T15:11:27.802Z,7.97
2023-05-20T15:13:54.900Z,9.35
2023-05-20T15:16:24.431Z,8.48
2023-05-20T15:18:52.099Z,7.40
2023-05-20T15:21:19.207Z,6.47
2023-05-20T15:23:46.250Z,8.32
2023-05-20T15:26:13.417Z,6.63
2023-05-20T15:28:40.940Z,8.07
2023-05-20T15:31:07.990Z,7.78
2023-05-20T15:33:35.423Z,8.18
2023-05-20T15:36:02.613Z,10.23
2023-05-20T15:38:29.779Z,6.05
2023-05-20T15:40:57.248Z,6.35
2023-05-20T15:43:24.399Z,6.72
2023-05-20T15:45:51.544Z,6.13
2023-05-20T15:48:18.726Z,10.52
2023-05-20T15:50:45.911Z,6.93
2023-05-20T15:53:14.859Z,5.78
2023-05-20T15:55:42.973Z,6.90
2023-05-20T15:58:10.626Z,6.50
2023-05-20T16:00:37.823Z,8.18
2023-05-20T16:03:05.092Z,6.15
2023-05-20T16:05:32.206Z,6.97
2023-05-20T16:07:59.275Z,8.27
2023-05-20T16:10:32.431Z,8.00
2023-05-20T16:13:03.836Z,5.97
2023-05-20T16:15:35.639Z,7.68
2023-05-20T16:18:03.048Z,5.75
2023-05-20T16:20:30.614Z,8.10
2023-05-20T16:22:57.765Z,7.05
2023-05-20T16:25:24.730Z,8.48
2023-05-20T16:27:51.822Z,8.15
2023-05-20T16:30:19.976Z,9.25
2023-05-20T16:32:47.135Z,13.93
2023-05-20T16:35:16.193Z,9.48
2023-05-20T16:37:44.554Z,9.20
2023-05-20T16:40:11.871Z,6.50
2023-05-20T16:42:39.837Z,6.47
2023-05-20T16:45:07.593Z,9.18
2023-05-20T16:47:37.145Z,6.40
2023-05-20T16:50:04.723Z,6.45
2023-05-20T16:52:33.537Z,6.95
2023-05-20T16:55:04.696Z,7.90
2023-05-20T16:57:32.651Z,7.88
2023-05-20T16:59:59.646Z,6.68
2023-05-20T17:02:26.728Z,6.90
2023-05-20T17:04:54.815Z,10.32
2023-05-20T17:07:21.913Z,8.25
2023-05-20T17:09:49.041Z,10.48
2023-05-20T17:12:17.163Z,8.10
2023-05-20T17:14:44.379Z,11.55
2023-05-20T17:17:13.989Z,9.00
2023-05-20T17:19:41.203Z,10.02
2023-05-20T17:22:08.107Z,9.05
2023-05-20T17:24:35.893Z,11.30
2023-05-20T17:27:03.824Z,10.35
2023-05-20T17:29:31.667Z,8.18
2023-05-20T17:31:58.673Z,9.65
2023-05-20T17:34:25.825Z,10.68
2023-05-20T17:36:52.980Z,7.72
2023-05-20T17:39:20.121Z,7.10
2023-05-20T17:41:47.288Z,8.13
2023-05-20T17:44:15.537Z,9.90
2023-05-20T17:46:43.873Z,6.88
2023-05-20T17:49:11.322Z,7.47
2023-05-20T17:51:38.362Z,10.93
2023-05-20T17:54:06.551Z,11.23
2023-05-20T17:56:33.634Z,8.68
2023-05-20T17:59:02.616Z,6.70
2023-05-20T18:01:30.099Z,10.93
2023-05-20T18:04:04.253Z,9.15
2023-05-20T18:06:34.605Z,9.15
2023-05-20T18:09:02.060Z,9.52
2023-05-20T18:11:32.656Z,8.70
2023-05-20T18:14:00.535Z,15.27
2023-05-20T18:16:28.864Z,8.48
2023-05-20T18:18:57.158Z,9.65
2023-05-20T18:21:25.029Z,11.93
2023-05-20T18:23:52.368Z,12.07
2023-05-20T18:26:19.452Z,12.73
2023-05-20T18:28:46.612Z,10.48
2023-05-20T18:31:13.659Z,10.65
2023-05-20T18:33:41.094Z,9.48
2023-05-20T18:36:08.308Z,13.52
2023-05-20T18:38:35.628Z,10.50
2023-05-20T18:41:02.693Z,10.68
2023-05-20T18:43:29.755Z,9.27
2023-05-20T18:45:56.937Z,6.78
2023-05-20T18:48:27.025Z,7.70
2023-05-20T18:50:56.123Z,13.32
2023-05-20T18:53:23.761Z,7.20
2023-05-20T18:55:51.217Z,8.25
2023-05-20T18:58:18.337Z,10.05
2023-05-20T19:00:45.580Z,8.38
2023-05-20T19:03:12.779Z,10.50
2023-05-20T19:05:40.979Z,9.20
2023-05-20T19:08:09.304Z,13.68
2023-05-20T19:10:36.392Z,7.00
2023-05-20T19:13:03.245Z,8.93
2023-05-20T19:15:31.290Z,9.93
2023-05-20T19:17:58.202Z,7.97
2023-05-20T19:20:25.197Z,9.32
2023-05-20T19:22:52.564Z,7.63
2023-05-20T19:25:20.272Z,10.27
2023-05-20T19:27:47.534Z,7.97
2023-05-20T19:30:14.428Z,9.15
2023-05-20T19:32:41.432Z,11.77
2023-05-20T19:35:08.791Z,13.18
2023-05-20T19:37:36.002Z,11.57
2023-05-20T19:40:03.800Z,8.63
2023-05-20T19:42:30.730Z,8.68
2023-05-20T19:44:57.594Z,9.10
2023-05-20T19:47:24.626Z,15.60
2023-05-20T19:49:51.627Z,8.65
2023-05-20T19:52:19.524Z,8.02
2023-05-20T19:54:47.348Z,8.00
2023-05-20T19:57:14.209Z,9.30
2023-05-20T19:59:41.401Z,6.88
2023-05-20T20:02:08.342Z,13.90
2023-05-20T20:04:35.312Z,9.77
2023-05-20T20:07:03.527Z,11.75
2023-05-20T20:09:31.215Z,9.18
2023-05-20T20:11:58.294Z,12.45
2023-05-20T20:14:25.405Z,9.43
2023-05-20T20:16:53.960Z,10.82
2023-05-20T20:19:23.938Z,8.68
2023-05-20T20:21:56.653Z,10.18
2023-05-20T20:24:24.265Z,7.50
2023-05-20T20:26:54.221Z,8.52
2023-05-20T20:29:24.142Z,12.10
2023-05-20T20:31:52.017Z,9.32
2023-05-20T20:34:19.275Z,12.20
2023-05-20T20:36:47.208Z,15.35
2023-05-20T20:39:15.345Z,12.88
2023-05-20T20:41:45.089Z,16.40
2023-05-20T20:44:19.018Z,14.60
2023-05-20T20:46:46.129Z,14.75
2023-05-20T20:49:13.249Z,12.55
2023-05-20T20:51:40.739Z,13.35
2023-05-20T20:54:08.159Z,11.60
2023-05-20T20:56:39.558Z,15.98
2023-05-20T20:59:06.464Z,12.40
2023-05-20T21:01:37.844Z,12.57
2023-05-20T21:04:06.298Z,12.27
2023-05-20T21:06:33.396Z,9.73
2023-05-20T21:09:02.272Z,11.43
2023-05-20T21:11:29.618Z,10.38
2023-05-20T21:13:56.776Z,9.35
2023-05-20T21:16:23.898Z,13.68
2023-05-20T21:18:50.973Z,11.07
2023-05-20T21:21:20.606Z,8.52
2023-05-20T21:23:49.195Z,8.75
2023-05-20T21:26:16.253Z,11.05
2023-05-20T21:28:43.260Z,8.10
2023-05-20T21:31:10.546Z,9.00
2023-05-20T21:33:37.594Z,12.55
2023-05-20T21:36:05.014Z,8.02
2023-05-20T21:38:32.145Z,9.77
2023-05-20T21:41:01.649Z,6.93
2023-05-20T21:43:29.558Z,8.93
2023-05-20T21:45:56.812Z,9.05
2023-05-20T21:48:23.804Z,9.32
2023-05-20T21:50:51.825Z,11.80
2023-05-20T21:53:18.696Z,14.13
2023-05-20T21:55:45.945Z,9.75
2023-05-20T21:58:12.915Z,10.43
2023-05-20T22:00:41.052Z,8.68
2023-05-20T22:03:08.155Z,9.77
2023-05-20T22:05:35.430Z,14.82
2023-05-20T22:08:02.955Z,8.82
2023-05-20T22:10:33.784Z,10.45
2023-05-20T22:13:02.222Z,9.35
2023-05-20T22:15:29.527Z,9.65
2023-05-20T22:17:57.236Z,12.35
2023-05-20T22:20:25.275Z,13.57
2023-05-20T22:22:52.220Z,13.90
2023-05-20T22:25:19.463Z,10.95
2023-05-20T22:27:47.110Z,11.15
2023-05-20T22:30:14.329Z,7.95
2023-05-20T22:32:41.530Z,8.77
2023-05-20T22:35:09.188Z,12.45
2023-05-20T22:37:36.352Z,8.27
2023-05-20T22:40:04.272Z,9.10
2023-05-20T22:42:32.191Z,10.48
2023-05-20T22:44:59.340Z,8.05
2023-05-20T22:47:26.613Z,8.73
2023-05-20T22:49:54.013Z,11.23
2023-05-20T22:52:21.287Z,10.23
2023-05-20T22:54:48.259Z,11.48
2023-05-20T22:57:17.057Z,8.68
2023-05-20T22:59:44.095Z,9.02
2023-05-20T23:02:11.526Z,8.95
2023-05-20T23:04:38.914Z,9.77
2023-05-20T23:07:06.473Z,10.68
2023-05-20T23:09:33.624Z,10.38
2023-05-20T23:12:00.785Z,8.95
2023-05-20T23:14:27.922Z,11.05
2023-05-20T23:16:55.185Z,11.63
2023-05-20T23:19:22.408Z,16.65
2023-05-20T23:21:49.311Z,16.45
2023-05-20T23:24:16.764Z,8.63
2023-05-20T23:26:44.048Z,13.35
2023-05-20T23:29:11.191Z,8.68
2023-05-20T23:31:38.360Z,10.75
2023-05-20T23:34:05.584Z,12.25
2023-05-20T23:36:35.502Z,12.77
2023-05-20T23:39:02.661Z,12.13
2023-05-20T23:41:29.726Z,9.27
2023-05-20T23:43:56.791Z,11.87
2023-05-20T23:46:23.995Z,11.73
2023-05-20T23:48:51.207Z,10.83
2023-05-20T23:51:18.313Z,9.37
2023-05-20T23:53:45.473Z,14.45
2023-05-20T23:56:12.584Z,10.00
2023-05-20T23:58:39.711Z,11.85
